sensor_id;sensor_type;location;lat;lon;timestamp;temperature;humidity
21787;DHT22;11055;50.870;4.316;2023-01-16T00:00:55;5.70;99.90
21787;DHT22;11055;50.870;4.316;2023-01-16T00:03:21;5.60;99.90
21787;DHT22;11055;50.870;4.316;2023-01-16T00:05:47;5.70;99.90
21787;DHT22;11055;50.870;4.316;2023-01-16T00:08:13;5.80;99.90
21787;DHT22;11055;50.870;4.316;2023-01-16T00:10:39;5.90;99.90
21787;DHT22;11055;50.870;4.316;2023-01-16T00:13:06;5.90;99.90
21787;DHT22;11055;50.870;4.316;2023-01-16T00:15:32;5.90;99.90
21787;DHT22;11055;50.870;4.316;2023-01-16T00:17:58;5.80;99.90
21787;DHT22;11055;50.870;4.316;2023-01-16T00:20:24;5.90;99.90
21787;DHT22;11055;50.870;4.316;2023-01-16T00:22:49;5.90;99.90
21787;DHT22;11055;50.870;4.316;2023-01-16T00:25:15;5.90;99.90
21787;DHT22;11055;50.870;4.316;2023-01-16T00:27:41;5.80;99.90
21787;DHT22;11055;50.870;4.316;2023-01-16T00:30:07;5.90;99.90
21787;DHT22;11055;50.870;4.316;2023-01-16T00:32:33;5.90;99.90
21787;DHT22;11055;50.870;4.316;2023-01-16T00:34:59;5.90;99.90
21787;DHT22;11055;50.870;4.316;2023-01-16T00:37:24;5.90;99.90
21787;DHT22;11055;50.870;4.316;2023-01-16T00:39:50;5.90;99.90
21787;DHT22;11055;50.870;4.316;2023-01-16T00:42:19;5.90;99.90
21787;DHT22;11055;50.870;4.316;2023-01-16T00:44:44;5.90;99.90
21787;DHT22;11055;50.870;4.316;2023-01-16T00:47:10;5.90;99.90
21787;DHT22;11055;50.870;4.316;2023-01-16T00:49:36;5.90;99.90
21787;DHT22;11055;50.870;4.316;2023-01-16T00:52:02;5.90;99.90
21787;DHT22;11055;50.870;4.316;2023-01-16T00:54:28;5.90;99.90
21787;DHT22;11055;50.870;4.316;2023-01-16T00:56:53;5.90;99.90
21787;DHT22;11055;50.870;4.316;2023-01-16T00:59:19;5.90;99.90
21787;DHT22;11055;50.870;4.316;2023-01-16T01:01:44;5.90;99.90
21787;DHT22;11055;50.870;4.316;2023-01-16T01:04:10;5.80;99.90
21787;DHT22;11055;50.870;4.316;2023-01-16T01:06:38;5.80;99.90
21787;DHT22;11055;50.870;4.316;2023-01-16T01:09:04;5.70;99.90
21787;DHT22;11055;50.870;4.316;2023-01-16T01:11:30;5.80;99.90
21787;DHT22;11055;50.870;4.316;2023-01-16T01:13:56;6.00;99.90
21787;DHT22;11055;50.870;4.316;2023-01-16T01:16:22;5.90;99.90
21787;DHT22;11055;50.870;4.316;2023-01-16T01:18:48;5.80;99.90
21787;DHT22;11055;50.870;4.316;2023-01-16T01:21:13;5.70;99.90
21787;DHT22;11055;50.870;4.316;2023-01-16T01:23:39;5.70;99.90
21787;DHT22;11055;50.870;4.316;2023-01-16T01:26:09;5.60;99.90
21787;DHT22;11055;50.870;4.316;2023-01-16T01:28:36;5.70;99.90
21787;DHT22;11055;50.870;4.316;2023-01-16T01:31:04;5.70;99.90
21787;DHT22;11055;50.870;4.316;2023-01-16T01:33:29;5.80;99.90
21787;DHT22;11055;50.870;4.316;2023-01-16T01:35:55;5.90;99.90
21787;DHT22;11055;50.870;4.316;2023-01-16T01:38:21;5.90;99.90
21787;DHT22;11055;50.870;4.316;2023-01-16T01:40:46;5.90;99.90
21787;DHT22;11055;50.870;4.316;2023-01-16T01:43:14;5.90;99.90
21787;DHT22;11055;50.870;4.316;2023-01-16T01:45:43;5.90;99.90
21787;DHT22;11055;50.870;4.316;2023-01-16T01:56:04;5.90;99.90
21787;DHT22;11055;50.870;4.316;2023-01-16T01:58:34;6.10;99.90
21787;DHT22;11055;50.870;4.316;2023-01-16T02:01:01;6.10;99.90
21787;DHT22;11055;50.870;4.316;2023-01-16T02:03:42;6.10;99.90
21787;DHT22;11055;50.870;4.316;2023-01-16T02:06:19;6.10;99.90
21787;DHT22;11055;50.870;4.316;2023-01-16T02:08:46;6.10;99.90
21787;DHT22;11055;50.870;4.316;2023-01-16T02:11:20;6.10;99.90
21787;DHT22;11055;50.870;4.316;2023-01-16T02:14:00;6.10;99.90
21787;DHT22;11055;50.870;4.316;2023-01-16T02:16:27;6.20;99.90
21787;DHT22;11055;50.870;4.316;2023-01-16T02:19:21;6.20;99.90
21787;DHT22;11055;50.870;4.316;2023-01-16T02:38:25;6.20;99.90
21787;DHT22;11055;50.870;4.316;2023-01-16T02:41:32;6.30;99.90
21787;DHT22;11055;50.870;4.316;2023-01-16T02:49:29;6.50;99.90
21787;DHT22;11055;50.870;4.316;2023-01-16T02:52:11;6.50;99.90
21787;DHT22;11055;50.870;4.316;2023-01-16T02:54:55;6.60;99.90
21787;DHT22;11055;50.870;4.316;2023-01-16T02:57:31;6.60;99.90
21787;DHT22;11055;50.870;4.316;2023-01-16T02:59:59;6.60;99.90
21787;DHT22;11055;50.870;4.316;2023-01-16T03:02:24;6.60;99.90
21787;DHT22;11055;50.870;4.316;2023-01-16T03:04:52;6.60;99.90
21787;DHT22;11055;50.870;4.316;2023-01-16T03:07:41;6.60;99.90
21787;DHT22;11055;50.870;4.316;2023-01-16T03:16:48;6.70;99.90
21787;DHT22;11055;50.870;4.316;2023-01-16T03:19:11;6.80;99.90
21787;DHT22;11055;50.870;4.316;2023-01-16T03:24:07;6.60;99.90
21787;DHT22;11055;50.870;4.316;2023-01-16T03:26:44;6.70;99.90
21787;DHT22;11055;50.870;4.316;2023-01-16T03:29:41;6.70;99.90
21787;DHT22;11055;50.870;4.316;2023-01-16T03:32:36;6.70;99.90
21787;DHT22;11055;50.870;4.316;2023-01-16T03:35:13;6.70;99.90
21787;DHT22;11055;50.870;4.316;2023-01-16T03:37:57;6.70;99.90
21787;DHT22;11055;50.870;4.316;2023-01-16T03:40:27;6.70;99.90
21787;DHT22;11055;50.870;4.316;2023-01-16T03:42:59;6.80;99.90
21787;DHT22;11055;50.870;4.316;2023-01-16T03:45:36;6.80;99.90
21787;DHT22;11055;50.870;4.316;2023-01-16T03:48:27;6.80;99.90
21787;DHT22;11055;50.870;4.316;2023-01-16T03:51:01;6.80;99.90
21787;DHT22;11055;50.870;4.316;2023-01-16T03:53:31;6.90;99.90
21787;DHT22;11055;50.870;4.316;2023-01-16T03:58:36;6.90;99.90
21787;DHT22;11055;50.870;4.316;2023-01-16T04:04:14;6.90;99.90
21787;DHT22;11055;50.870;4.316;2023-01-16T04:06:52;6.80;99.90
21787;DHT22;11055;50.870;4.316;2023-01-16T04:09:33;6.80;99.90
21787;DHT22;11055;50.870;4.316;2023-01-16T04:12:02;6.80;99.90
21787;DHT22;11055;50.870;4.316;2023-01-16T04:14:30;6.80;99.90
21787;DHT22;11055;50.870;4.316;2023-01-16T04:16:57;6.70;99.90
21787;DHT22;11055;50.870;4.316;2023-01-16T04:19:24;6.70;99.90
21787;DHT22;11055;50.870;4.316;2023-01-16T04:21:51;6.70;99.90
21787;DHT22;11055;50.870;4.316;2023-01-16T04:24:18;6.70;99.90
21787;DHT22;11055;50.870;4.316;2023-01-16T04:26:44;6.70;99.90
21787;DHT22;11055;50.870;4.316;2023-01-16T04:29:10;6.70;99.90
21787;DHT22;11055;50.870;4.316;2023-01-16T04:31:35;6.60;99.90
21787;DHT22;11055;50.870;4.316;2023-01-16T04:34:01;6.60;99.90
21787;DHT22;11055;50.870;4.316;2023-01-16T04:36:27;6.60;99.90
21787;DHT22;11055;50.870;4.316;2023-01-16T04:38:52;6.50;99.90
21787;DHT22;11055;50.870;4.316;2023-01-16T04:41:18;6.50;99.90
21787;DHT22;11055;50.870;4.316;2023-01-16T04:44:02;6.50;99.90
21787;DHT22;11055;50.870;4.316;2023-01-16T04:46:28;6.50;99.90
21787;DHT22;11055;50.870;4.316;2023-01-16T04:48:54;6.50;99.90
21787;DHT22;11055;50.870;4.316;2023-01-16T04:51:19;6.50;99.90
21787;DHT22;11055;50.870;4.316;2023-01-16T04:53:45;6.50;99.90
21787;DHT22;11055;50.870;4.316;2023-01-16T04:56:11;6.60;99.90
21787;DHT22;11055;50.870;4.316;2023-01-16T04:58:36;6.50;99.90
21787;DHT22;11055;50.870;4.316;2023-01-16T05:01:02;6.60;99.90
21787;DHT22;11055;50.870;4.316;2023-01-16T05:03:28;6.50;99.90
21787;DHT22;11055;50.870;4.316;2023-01-16T05:05:53;6.50;99.90
21787;DHT22;11055;50.870;4.316;2023-01-16T05:08:19;6.60;99.90
21787;DHT22;11055;50.870;4.316;2023-01-16T05:10:45;6.40;99.90
21787;DHT22;11055;50.870;4.316;2023-01-16T05:13:11;6.40;99.90
21787;DHT22;11055;50.870;4.316;2023-01-16T05:15:36;6.30;99.90
21787;DHT22;11055;50.870;4.316;2023-01-16T05:18:02;6.30;99.90
21787;DHT22;11055;50.870;4.316;2023-01-16T05:20:28;6.30;99.90
21787;DHT22;11055;50.870;4.316;2023-01-16T05:22:54;6.30;99.90
21787;DHT22;11055;50.870;4.316;2023-01-16T05:25:19;6.20;99.90
21787;DHT22;11055;50.870;4.316;2023-01-16T05:27:49;6.20;99.90
21787;DHT22;11055;50.870;4.316;2023-01-16T05:30:15;6.10;99.90
21787;DHT22;11055;50.870;4.316;2023-01-16T05:32:43;6.10;99.90
21787;DHT22;11055;50.870;4.316;2023-01-16T05:35:09;6.00;99.90
21787;DHT22;11055;50.870;4.316;2023-01-16T05:37:34;6.00;99.90
21787;DHT22;11055;50.870;4.316;2023-01-16T05:40:00;6.10;99.90
21787;DHT22;11055;50.870;4.316;2023-01-16T05:42:26;6.00;99.90
21787;DHT22;11055;50.870;4.316;2023-01-16T05:44:52;6.00;99.90
21787;DHT22;11055;50.870;4.316;2023-01-16T05:47:19;5.90;99.90
21787;DHT22;11055;50.870;4.316;2023-01-16T05:49:45;5.90;99.90
21787;DHT22;11055;50.870;4.316;2023-01-16T05:52:10;5.80;99.90
21787;DHT22;11055;50.870;4.316;2023-01-16T05:54:36;5.70;99.90
21787;DHT22;11055;50.870;4.316;2023-01-16T05:57:02;5.70;99.90
21787;DHT22;11055;50.870;4.316;2023-01-16T05:59:28;5.60;99.90
21787;DHT22;11055;50.870;4.316;2023-01-16T06:01:53;5.60;99.90
21787;DHT22;11055;50.870;4.316;2023-01-16T06:04:19;5.70;99.90
21787;DHT22;11055;50.870;4.316;2023-01-16T06:06:45;5.70;99.90
21787;DHT22;11055;50.870;4.316;2023-01-16T06:09:11;5.70;99.90
21787;DHT22;11055;50.870;4.316;2023-01-16T06:11:37;5.70;99.90
21787;DHT22;11055;50.870;4.316;2023-01-16T06:14:02;5.60;99.90
21787;DHT22;11055;50.870;4.316;2023-01-16T06:16:31;5.70;99.90
21787;DHT22;11055;50.870;4.316;2023-01-16T06:18:57;5.70;99.90
21787;DHT22;11055;50.870;4.316;2023-01-16T06:21:23;5.80;99.90
21787;DHT22;11055;50.870;4.316;2023-01-16T06:23:49;5.70;99.90
21787;DHT22;11055;50.870;4.316;2023-01-16T06:26:15;5.60;99.90
21787;DHT22;11055;50.870;4.316;2023-01-16T06:28:41;5.60;99.90
21787;DHT22;11055;50.870;4.316;2023-01-16T06:31:07;5.60;99.90
21787;DHT22;11055;50.870;4.316;2023-01-16T06:33:33;5.50;99.90
21787;DHT22;11055;50.870;4.316;2023-01-16T06:35:58;5.50;99.90
21787;DHT22;11055;50.870;4.316;2023-01-16T06:38:24;5.60;99.90
21787;DHT22;11055;50.870;4.316;2023-01-16T06:40:50;5.50;99.90
21787;DHT22;11055;50.870;4.316;2023-01-16T06:43:22;5.50;99.90
21787;DHT22;11055;50.870;4.316;2023-01-16T06:45:48;5.60;99.90
21787;DHT22;11055;50.870;4.316;2023-01-16T06:48:14;5.60;99.90
21787;DHT22;11055;50.870;4.316;2023-01-16T06:50:39;5.70;99.90
21787;DHT22;11055;50.870;4.316;2023-01-16T06:53:05;5.80;99.90
21787;DHT22;11055;50.870;4.316;2023-01-16T06:55:31;5.80;99.90
21787;DHT22;11055;50.870;4.316;2023-01-16T06:57:57;5.80;99.90
21787;DHT22;11055;50.870;4.316;2023-01-16T07:00:23;5.80;99.90
21787;DHT22;11055;50.870;4.316;2023-01-16T07:02:54;5.70;99.90
21787;DHT22;11055;50.870;4.316;2023-01-16T07:05:21;5.70;99.90
21787;DHT22;11055;50.870;4.316;2023-01-16T07:07:48;5.70;99.90
21787;DHT22;11055;50.870;4.316;2023-01-16T07:10:14;5.80;99.90
21787;DHT22;11055;50.870;4.316;2023-01-16T07:12:40;5.80;99.90
21787;DHT22;11055;50.870;4.316;2023-01-16T07:15:07;5.80;99.90
21787;DHT22;11055;50.870;4.316;2023-01-16T07:17:51;5.80;99.90
21787;DHT22;11055;50.870;4.316;2023-01-16T07:20:37;5.70;99.90
21787;DHT22;11055;50.870;4.316;2023-01-16T07:23:28;5.70;99.90
21787;DHT22;11055;50.870;4.316;2023-01-16T07:25:57;5.70;99.90
21787;DHT22;11055;50.870;4.316;2023-01-16T07:28:24;5.80;99.90
21787;DHT22;11055;50.870;4.316;2023-01-16T07:30:50;5.70;99.90
21787;DHT22;11055;50.870;4.316;2023-01-16T07:33:17;5.70;99.90
21787;DHT22;11055;50.870;4.316;2023-01-16T07:35:43;5.80;99.90
21787;DHT22;11055;50.870;4.316;2023-01-16T07:38:11;5.80;99.90
21787;DHT22;11055;50.870;4.316;2023-01-16T07:40:36;5.90;99.90
21787;DHT22;11055;50.870;4.316;2023-01-16T07:43:02;5.90;99.90
21787;DHT22;11055;50.870;4.316;2023-01-16T07:45:28;5.90;99.90
21787;DHT22;11055;50.870;4.316;2023-01-16T07:47:54;5.90;99.90
21787;DHT22;11055;50.870;4.316;2023-01-16T07:50:20;5.90;99.90
21787;DHT22;11055;50.870;4.316;2023-01-16T07:52:45;5.80;99.90
21787;DHT22;11055;50.870;4.316;2023-01-16T07:55:12;5.90;99.90
21787;DHT22;11055;50.870;4.316;2023-01-16T07:57:39;6.00;99.90
21787;DHT22;11055;50.870;4.316;2023-01-16T08:00:09;5.90;99.90
21787;DHT22;11055;50.870;4.316;2023-01-16T08:02:36;5.90;99.90
21787;DHT22;11055;50.870;4.316;2023-01-16T08:05:02;5.80;99.90
21787;DHT22;11055;50.870;4.316;2023-01-16T08:07:28;5.80;99.90
21787;DHT22;11055;50.870;4.316;2023-01-16T08:09:54;5.90;99.90
21787;DHT22;11055;50.870;4.316;2023-01-16T08:12:20;6.00;99.90
21787;DHT22;11055;50.870;4.316;2023-01-16T08:14:45;5.90;99.90
21787;DHT22;11055;50.870;4.316;2023-01-16T08:17:11;6.00;99.90
21787;DHT22;11055;50.870;4.316;2023-01-16T08:19:37;6.10;99.90
21787;DHT22;11055;50.870;4.316;2023-01-16T08:22:03;6.10;99.90
21787;DHT22;11055;50.870;4.316;2023-01-16T08:24:29;6.20;99.90
21787;DHT22;11055;50.870;4.316;2023-01-16T08:26:55;6.20;99.90
21787;DHT22;11055;50.870;4.316;2023-01-16T08:29:21;6.30;99.90
21787;DHT22;11055;50.870;4.316;2023-01-16T08:31:47;6.40;99.90
21787;DHT22;11055;50.870;4.316;2023-01-16T08:34:13;6.40;99.90
21787;DHT22;11055;50.870;4.316;2023-01-16T08:36:38;6.40;99.90
21787;DHT22;11055;50.870;4.316;2023-01-16T08:39:04;6.40;99.90
21787;DHT22;11055;50.870;4.316;2023-01-16T08:41:30;6.50;99.90
21787;DHT22;11055;50.870;4.316;2023-01-16T08:44:14;6.60;99.90
21787;DHT22;11055;50.870;4.316;2023-01-16T08:47:10;6.60;99.90
21787;DHT22;11055;50.870;4.316;2023-01-16T08:49:55;6.70;99.90
21787;DHT22;11055;50.870;4.316;2023-01-16T08:52:40;6.80;99.90
21787;DHT22;11055;50.870;4.316;2023-01-16T08:55:08;6.70;99.90
21787;DHT22;11055;50.870;4.316;2023-01-16T08:57:33;6.50;99.90
21787;DHT22;11055;50.870;4.316;2023-01-16T09:00:01;6.60;99.90
21787;DHT22;11055;50.870;4.316;2023-01-16T09:02:27;6.50;99.90
21787;DHT22;11055;50.870;4.316;2023-01-16T09:04:53;6.50;99.90
21787;DHT22;11055;50.870;4.316;2023-01-16T09:07:21;6.50;99.90
21787;DHT22;11055;50.870;4.316;2023-01-16T09:09:47;6.50;99.90
21787;DHT22;11055;50.870;4.316;2023-01-16T09:12:13;6.40;99.90
21787;DHT22;11055;50.870;4.316;2023-01-16T09:14:58;6.50;99.90
21787;DHT22;11055;50.870;4.316;2023-01-16T09:17:25;6.40;99.90
21787;DHT22;11055;50.870;4.316;2023-01-16T09:19:51;6.30;99.90
21787;DHT22;11055;50.870;4.316;2023-01-16T09:22:17;6.30;99.90
21787;DHT22;11055;50.870;4.316;2023-01-16T09:24:44;6.30;99.90
21787;DHT22;11055;50.870;4.316;2023-01-16T09:27:10;6.20;99.90
21787;DHT22;11055;50.870;4.316;2023-01-16T09:29:39;6.20;99.90
21787;DHT22;11055;50.870;4.316;2023-01-16T09:32:05;6.30;99.90
21787;DHT22;11055;50.870;4.316;2023-01-16T09:34:38;6.30;99.90
21787;DHT22;11055;50.870;4.316;2023-01-16T09:37:07;6.40;99.90
21787;DHT22;11055;50.870;4.316;2023-01-16T09:39:33;6.50;99.90
21787;DHT22;11055;50.870;4.316;2023-01-16T09:44:49;6.50;99.90
21787;DHT22;11055;50.870;4.316;2023-01-16T09:47:16;6.70;99.90
21787;DHT22;11055;50.870;4.316;2023-01-16T09:49:58;6.70;99.90
21787;DHT22;11055;50.870;4.316;2023-01-16T09:52:31;6.90;99.90
21787;DHT22;11055;50.870;4.316;2023-01-16T09:58:07;7.20;99.90
21787;DHT22;11055;50.870;4.316;2023-01-16T10:00:55;7.30;99.90
21787;DHT22;11055;50.870;4.316;2023-01-16T10:03:21;7.30;99.90
21787;DHT22;11055;50.870;4.316;2023-01-16T10:06:06;7.20;99.90
21787;DHT22;11055;50.870;4.316;2023-01-16T10:14:10;7.20;99.90
21787;DHT22;11055;50.870;4.316;2023-01-16T10:17:11;7.20;99.90
21787;DHT22;11055;50.870;4.316;2023-01-16T10:25:54;6.90;99.90
21787;DHT22;11055;50.870;4.316;2023-01-16T10:34:04;6.80;99.90
21787;DHT22;11055;50.870;4.316;2023-01-16T10:36:35;6.60;99.90
21787;DHT22;11055;50.870;4.316;2023-01-16T10:39:03;6.70;99.90
21787;DHT22;11055;50.870;4.316;2023-01-16T10:41:49;6.70;99.90
21787;DHT22;11055;50.870;4.316;2023-01-16T10:44:35;6.80;99.90
21787;DHT22;11055;50.870;4.316;2023-01-16T10:47:31;6.80;99.90
21787;DHT22;11055;50.870;4.316;2023-01-16T10:50:21;6.90;99.90
21787;DHT22;11055;50.870;4.316;2023-01-16T10:52:49;7.00;99.90
21787;DHT22;11055;50.870;4.316;2023-01-16T10:55:15;7.00;99.90
21787;DHT22;11055;50.870;4.316;2023-01-16T10:57:49;7.00;99.90
21787;DHT22;11055;50.870;4.316;2023-01-16T11:00:37;7.20;99.90
21787;DHT22;11055;50.870;4.316;2023-01-16T11:06:06;7.40;99.90
21787;DHT22;11055;50.870;4.316;2023-01-16T11:08:33;7.50;99.90
21787;DHT22;11055;50.870;4.316;2023-01-16T11:10:58;7.60;99.90
21787;DHT22;11055;50.870;4.316;2023-01-16T11:13:26;7.60;99.90
21787;DHT22;11055;50.870;4.316;2023-01-16T11:18:55;7.90;99.90
21787;DHT22;11055;50.870;4.316;2023-01-16T11:21:30;8.00;99.90
21787;DHT22;11055;50.870;4.316;2023-01-16T11:24:09;7.90;99.90
21787;DHT22;11055;50.870;4.316;2023-01-16T11:26:39;7.90;99.90
21787;DHT22;11055;50.870;4.316;2023-01-16T11:29:21;7.70;99.90
21787;DHT22;11055;50.870;4.316;2023-01-16T11:31:56;7.70;99.90
21787;DHT22;11055;50.870;4.316;2023-01-16T11:34:24;7.80;99.90
21787;DHT22;11055;50.870;4.316;2023-01-16T11:37:04;7.70;99.90
21787;DHT22;11055;50.870;4.316;2023-01-16T11:39:34;7.90;99.90
21787;DHT22;11055;50.870;4.316;2023-01-16T11:42:04;7.80;99.90
21787;DHT22;11055;50.870;4.316;2023-01-16T11:44:59;7.80;99.90
21787;DHT22;11055;50.870;4.316;2023-01-16T11:47:53;7.90;99.90
21787;DHT22;11055;50.870;4.316;2023-01-16T11:50:35;8.00;99.90
21787;DHT22;11055;50.870;4.316;2023-01-16T11:53:04;8.00;99.90
21787;DHT22;11055;50.870;4.316;2023-01-16T11:55:39;7.80;99.90
21787;DHT22;11055;50.870;4.316;2023-01-16T12:01:08;7.70;99.90
21787;DHT22;11055;50.870;4.316;2023-01-16T12:03:53;7.60;99.90
21787;DHT22;11055;50.870;4.316;2023-01-16T12:06:26;7.50;99.90
21787;DHT22;11055;50.870;4.316;2023-01-16T12:19:54;7.80;99.90
21787;DHT22;11055;50.870;4.316;2023-01-16T12:36:01;7.80;99.90
21787;DHT22;11055;50.870;4.316;2023-01-16T12:38:48;7.80;99.90
21787;DHT22;11055;50.870;4.316;2023-01-16T12:41:43;7.80;99.90
21787;DHT22;11055;50.870;4.316;2023-01-16T12:44:34;7.70;99.90
21787;DHT22;11055;50.870;4.316;2023-01-16T12:49:52;7.70;99.90
21787;DHT22;11055;50.870;4.316;2023-01-16T12:52:40;7.80;99.90
21787;DHT22;11055;50.870;4.316;2023-01-16T13:01:03;7.70;99.90
21787;DHT22;11055;50.870;4.316;2023-01-16T13:03:36;7.70;99.90
21787;DHT22;11055;50.870;4.316;2023-01-16T13:06:10;7.60;99.90
21787;DHT22;11055;50.870;4.316;2023-01-16T13:08:52;7.60;99.90
21787;DHT22;11055;50.870;4.316;2023-01-16T13:11:34;7.80;99.90
21787;DHT22;11055;50.870;4.316;2023-01-16T13:14:22;7.80;99.90
21787;DHT22;11055;50.870;4.316;2023-01-16T13:17:06;7.70;99.90
21787;DHT22;11055;50.870;4.316;2023-01-16T13:19:40;7.80;99.90
21787;DHT22;11055;50.870;4.316;2023-01-16T13:24:41;8.10;99.90
21787;DHT22;11055;50.870;4.316;2023-01-16T13:27:17;8.40;99.90
21787;DHT22;11055;50.870;4.316;2023-01-16T13:29:50;8.60;99.90
21787;DHT22;11055;50.870;4.316;2023-01-16T13:41:27;8.60;99.90
21787;DHT22;11055;50.870;4.316;2023-01-16T13:44:02;8.50;99.90
21787;DHT22;11055;50.870;4.316;2023-01-16T13:46:48;8.70;99.90
21787;DHT22;11055;50.870;4.316;2023-01-16T13:49:21;8.60;99.90
21787;DHT22;11055;50.870;4.316;2023-01-16T13:51:49;8.40;99.90
21787;DHT22;11055;50.870;4.316;2023-01-16T13:54:22;8.30;99.90
21787;DHT22;11055;50.870;4.316;2023-01-16T13:57:07;8.20;99.90
21787;DHT22;11055;50.870;4.316;2023-01-16T13:59:59;8.10;99.90
21787;DHT22;11055;50.870;4.316;2023-01-16T14:10:46;8.00;99.90
21787;DHT22;11055;50.870;4.316;2023-01-16T14:13:36;7.90;99.90
21787;DHT22;11055;50.870;4.316;2023-01-16T14:19:02;7.90;99.90
21787;DHT22;11055;50.870;4.316;2023-01-16T14:21:48;8.00;99.90
21787;DHT22;11055;50.870;4.316;2023-01-16T14:24:48;8.00;99.90
21787;DHT22;11055;50.870;4.316;2023-01-16T14:27:18;8.10;99.90
21787;DHT22;11055;50.870;4.316;2023-01-16T14:32:17;8.10;99.90
21787;DHT22;11055;50.870;4.316;2023-01-16T14:34:51;7.90;99.90
21787;DHT22;11055;50.870;4.316;2023-01-16T14:37:26;7.70;99.90
21787;DHT22;11055;50.870;4.316;2023-01-16T14:39:55;7.40;99.90
21787;DHT22;11055;50.870;4.316;2023-01-16T14:42:45;7.10;99.90
21787;DHT22;11055;50.870;4.316;2023-01-16T14:45:37;7.10;99.90
21787;DHT22;11055;50.870;4.316;2023-01-16T14:54:02;7.00;99.90
21787;DHT22;11055;50.870;4.316;2023-01-16T15:00:16;6.80;99.90
21787;DHT22;11055;50.870;4.316;2023-01-16T15:03:00;6.80;99.90
21787;DHT22;11055;50.870;4.316;2023-01-16T15:05:34;6.80;99.90
21787;DHT22;11055;50.870;4.316;2023-01-16T15:08:23;6.80;99.90
21787;DHT22;11055;50.870;4.316;2023-01-16T15:10:50;6.70;99.90
21787;DHT22;11055;50.870;4.316;2023-01-16T15:13:20;6.50;99.90
21787;DHT22;11055;50.870;4.316;2023-01-16T15:15:59;6.40;99.90
21787;DHT22;11055;50.870;4.316;2023-01-16T15:18:25;6.40;99.90
21787;DHT22;11055;50.870;4.316;2023-01-16T15:21:19;6.30;99.90
21787;DHT22;11055;50.870;4.316;2023-01-16T15:24:05;6.20;99.90
21787;DHT22;11055;50.870;4.316;2023-01-16T15:32:22;5.60;99.90
21787;DHT22;11055;50.870;4.316;2023-01-16T15:35:13;5.50;99.90
21787;DHT22;11055;50.870;4.316;2023-01-16T15:37:51;5.40;99.90
21787;DHT22;11055;50.870;4.316;2023-01-16T15:40:25;5.40;99.90
21787;DHT22;11055;50.870;4.316;2023-01-16T15:42:52;5.10;99.90
21787;DHT22;11055;50.870;4.316;2023-01-16T15:45:37;5.10;99.90
21787;DHT22;11055;50.870;4.316;2023-01-16T15:48:52;5.20;99.90
21787;DHT22;11055;50.870;4.316;2023-01-16T15:51:21;5.20;99.90
21787;DHT22;11055;50.870;4.316;2023-01-16T15:53:49;5.10;99.90
21787;DHT22;11055;50.870;4.316;2023-01-16T15:56:41;5.10;99.90
21787;DHT22;11055;50.870;4.316;2023-01-16T15:59:28;5.20;99.90
21787;DHT22;11055;50.870;4.316;2023-01-16T16:02:23;5.10;99.90
21787;DHT22;11055;50.870;4.316;2023-01-16T16:04:52;5.00;99.90
21787;DHT22;11055;50.870;4.316;2023-01-16T16:07:22;5.00;99.90
21787;DHT22;11055;50.870;4.316;2023-01-16T16:09:54;4.90;99.90
21787;DHT22;11055;50.870;4.316;2023-01-16T16:12:22;5.00;99.90
21787;DHT22;11055;50.870;4.316;2023-01-16T16:14:48;4.90;99.90
21787;DHT22;11055;50.870;4.316;2023-01-16T16:17:33;5.00;99.90
21787;DHT22;11055;50.870;4.316;2023-01-16T16:20:34;5.00;99.90
21787;DHT22;11055;50.870;4.316;2023-01-16T16:25:50;5.10;99.90
21787;DHT22;11055;50.870;4.316;2023-01-16T16:30:45;5.10;99.90
21787;DHT22;11055;50.870;4.316;2023-01-16T16:33:18;5.10;99.90
21787;DHT22;11055;50.870;4.316;2023-01-16T16:35:55;5.10;99.90
21787;DHT22;11055;50.870;4.316;2023-01-16T16:38:42;5.10;99.90
21787;DHT22;11055;50.870;4.316;2023-01-16T16:43:43;5.10;99.90
21787;DHT22;11055;50.870;4.316;2023-01-16T16:48:54;5.10;99.90
21787;DHT22;11055;50.870;4.316;2023-01-16T16:51:28;5.00;99.90
21787;DHT22;11055;50.870;4.316;2023-01-16T16:54:08;5.00;99.90
21787;DHT22;11055;50.870;4.316;2023-01-16T16:56:36;4.90;99.90
21787;DHT22;11055;50.870;4.316;2023-01-16T16:59:03;5.00;99.90
21787;DHT22;11055;50.870;4.316;2023-01-16T17:01:30;5.00;99.90
21787;DHT22;11055;50.870;4.316;2023-01-16T17:03:57;5.10;99.90
21787;DHT22;11055;50.870;4.316;2023-01-16T17:06:31;5.10;99.90
21787;DHT22;11055;50.870;4.316;2023-01-16T17:08:58;5.10;99.90
21787;DHT22;11055;50.870;4.316;2023-01-16T17:11:25;5.10;99.90
21787;DHT22;11055;50.870;4.316;2023-01-16T17:13:51;5.00;99.90
21787;DHT22;11055;50.870;4.316;2023-01-16T17:16:22;5.00;99.90
21787;DHT22;11055;50.870;4.316;2023-01-16T17:18:48;5.00;99.90
21787;DHT22;11055;50.870;4.316;2023-01-16T17:21:18;4.90;99.90
21787;DHT22;11055;50.870;4.316;2023-01-16T17:23:44;4.90;99.90
21787;DHT22;11055;50.870;4.316;2023-01-16T17:26:10;4.90;99.90
21787;DHT22;11055;50.870;4.316;2023-01-16T17:28:40;4.90;99.90
21787;DHT22;11055;50.870;4.316;2023-01-16T17:31:13;4.80;99.90
21787;DHT22;11055;50.870;4.316;2023-01-16T17:33:39;4.80;99.90
21787;DHT22;11055;50.870;4.316;2023-01-16T17:36:05;4.80;99.90
21787;DHT22;11055;50.870;4.316;2023-01-16T17:38:38;4.80;99.90
21787;DHT22;11055;50.870;4.316;2023-01-16T17:41:04;4.70;99.90
21787;DHT22;11055;50.870;4.316;2023-01-16T17:43:33;4.60;99.90
21787;DHT22;11055;50.870;4.316;2023-01-16T17:46:18;4.50;99.90
21787;DHT22;11055;50.870;4.316;2023-01-16T17:48:48;4.40;99.90
21787;DHT22;11055;50.870;4.316;2023-01-16T17:51:14;4.30;99.90
21787;DHT22;11055;50.870;4.316;2023-01-16T17:53:39;4.20;99.90
21787;DHT22;11055;50.870;4.316;2023-01-16T17:56:07;4.20;99.90
21787;DHT22;11055;50.870;4.316;2023-01-16T17:58:34;4.10;99.90
21787;DHT22;11055;50.870;4.316;2023-01-16T18:01:26;4.00;99.90
21787;DHT22;11055;50.870;4.316;2023-01-16T18:03:54;3.90;99.90
21787;DHT22;11055;50.870;4.316;2023-01-16T18:06:27;3.90;99.90
21787;DHT22;11055;50.870;4.316;2023-01-16T18:08:54;3.80;99.90
21787;DHT22;11055;50.870;4.316;2023-01-16T18:11:21;3.80;99.90
21787;DHT22;11055;50.870;4.316;2023-01-16T18:14:08;3.80;99.90
21787;DHT22;11055;50.870;4.316;2023-01-16T18:16:53;3.80;99.90
21787;DHT22;11055;50.870;4.316;2023-01-16T18:19:37;3.80;99.90
21787;DHT22;11055;50.870;4.316;2023-01-16T18:22:02;3.90;99.90
21787;DHT22;11055;50.870;4.316;2023-01-16T18:24:35;3.90;99.90
21787;DHT22;11055;50.870;4.316;2023-01-16T18:27:03;4.00;99.90
21787;DHT22;11055;50.870;4.316;2023-01-16T18:29:29;4.00;99.90
21787;DHT22;11055;50.870;4.316;2023-01-16T18:31:55;4.00;99.90
21787;DHT22;11055;50.870;4.316;2023-01-16T18:34:40;4.00;99.90
21787;DHT22;11055;50.870;4.316;2023-01-16T18:37:05;4.10;99.90
21787;DHT22;11055;50.870;4.316;2023-01-16T18:39:31;4.20;99.90
21787;DHT22;11055;50.870;4.316;2023-01-16T18:42:15;4.20;99.90
21787;DHT22;11055;50.870;4.316;2023-01-16T18:44:59;4.30;99.90
21787;DHT22;11055;50.870;4.316;2023-01-16T18:47:44;4.30;99.90
21787;DHT22;11055;50.870;4.316;2023-01-16T18:50:28;4.40;99.90
21787;DHT22;11055;50.870;4.316;2023-01-16T18:53:30;4.50;99.90
21787;DHT22;11055;50.870;4.316;2023-01-16T18:56:14;4.50;99.90